createdAt,value
2018-03-26T00:00:35.644Z,37.8
2018-03-26T00:01:26.393Z,37.8
2018-03-26T00:02:15.982Z,37.8
2018-03-26T00:03:07.019Z,37.8
2018-03-26T00:03:55.582Z,37.8
2018-03-26T00:04:45.648Z,37.8
2018-03-26T00:05:36.491Z,37.9
2018-03-26T00:06:26.468Z,37.9
2018-03-26T00:07:17.315Z,37.9
2018-03-26T00:08:06.336Z,37.9
2018-03-26T00:08:56.729Z,38
2018-03-26T00:09:47.165Z,38.1
2018-03-26T00:10:36.917Z,38.1
2018-03-26T00:11:27.574Z,38.1
2018-03-26T00:12:16.725Z,38.1
2018-03-26T00:13:06.437Z,38.2
2018-03-26T00:13:56.846Z,38.3
2018-03-26T00:14:47.846Z,38.3
2018-03-26T00:15:37.338Z,38.3
2018-03-26T00:16:26.779Z,38.3
2018-03-26T00:17:17.085Z,38.3
2018-03-26T00:18:07.148Z,38.3
2018-03-26T00:18:57.548Z,38.3
2018-03-26T00:19:45.814Z,38.4
2018-03-26T00:20:35.696Z,38.4
2018-03-26T00:21:26.491Z,38.4
2018-03-26T00:22:17.439Z,38.4
2018-03-26T00:23:06.756Z,38.4
2018-03-26T00:23:57.038Z,38.4
2018-03-26T00:24:46.958Z,38.4
2018-03-26T00:25:37.570Z,38.4
2018-03-26T00:26:27.998Z,38.4
2018-03-26T00:27:17.288Z,38.4
2018-03-26T00:28:07.381Z,38.3
2018-03-26T00:28:57.305Z,38.2
2018-03-26T00:29:46.884Z,38.1
2018-03-26T00:30:37.391Z,38
2018-03-26T00:31:26.996Z,37.9
2018-03-26T00:32:17.158Z,37.8
2018-03-26T00:33:07.543Z,37.6
2018-03-26T00:33:58.890Z,37.6
2018-03-26T00:34:47.308Z,37.4
2018-03-26T00:35:37.225Z,37.3
2018-03-26T00:36:27.519Z,37.2
2018-03-26T00:37:17.871Z,36.9
2018-03-26T00:38:08.151Z,36.7
2018-03-26T00:38:56.932Z,36.4
2018-03-26T00:39:48.188Z,36.2
2018-03-26T00:40:37.952Z,36
2018-03-26T00:41:28.064Z,35.8
2018-03-26T00:42:19.083Z,35.5
2018-03-26T00:43:08.884Z,35.3
2018-03-26T00:43:58.246Z,35.2
2018-03-26T00:44:48.232Z,35
2018-03-26T00:45:38.752Z,34.9
2018-03-26T00:46:29.459Z,34.7
2018-03-26T00:47:19.441Z,34.6
2018-03-26T00:48:10.307Z,34.4
2018-03-26T00:49:00.639Z,34.2
2018-03-26T00:49:50.461Z,33.9
2018-03-26T00:50:40.556Z,33.6
2018-03-26T00:51:30.292Z,33.3
2018-03-26T00:52:20.899Z,33.1
2018-03-26T00:53:10.440Z,32.8
2018-03-26T00:54:00.687Z,32.6
2018-03-26T00:54:49.971Z,32.4
2018-03-26T00:55:40.044Z,32.2
2018-03-26T00:56:30.690Z,32
2018-03-26T00:57:20.142Z,31.9
2018-03-26T00:58:10.249Z,31.8
2018-03-26T00:59:00.852Z,31.7
2018-03-26T00:59:50.358Z,31.6
2018-03-26T01:00:40.136Z,31.4
2018-03-26T01:01:30.627Z,31.4
2018-03-26T01:02:20.519Z,31.3
2018-03-26T01:03:10.774Z,31.2
2018-03-26T01:04:00.814Z,31.1
2018-03-26T01:04:51.504Z,31.1
2018-03-26T01:05:41.386Z,30.9
2018-03-26T01:06:31.859Z,30.9
2018-03-26T01:07:21.933Z,30.8
2018-03-26T01:08:11.744Z,30.8
2018-03-26T01:09:01.210Z,30.7
2018-03-26T01:09:51.811Z,30.6
2018-03-26T01:10:41.904Z,30.6
2018-03-26T01:11:31.349Z,30.5
2018-03-26T01:12:21.426Z,30.4
2018-03-26T01:13:12.335Z,30.4
2018-03-26T01:14:02.352Z,30.3
2018-03-26T01:14:51.570Z,30.3
2018-03-26T01:15:41.628Z,30.3
2018-03-26T01:16:31.708Z,30.2
2018-03-26T01:17:22.041Z,30.1
2018-03-26T01:18:10.291Z,30.1
2018-03-26T01:19:01.014Z,30.1
2018-03-26T01:19:50.594Z,30
2018-03-26T01:20:41.349Z,29.9
2018-03-26T01:21:31.196Z,29.9
2018-03-26T01:22:21.435Z,29.9
2018-03-26T01:23:11.293Z,29.8
2018-03-26T01:24:00.957Z,29.8
2018-03-26T01:24:51.609Z,29.8
2018-03-26T01:25:41.609Z,29.7
2018-03-26T01:26:31.919Z,29.7
2018-03-26T01:27:20.878Z,29.6
2018-03-26T01:28:12.044Z,29.6
2018-03-26T01:29:01.809Z,29.6
2018-03-26T01:29:51.673Z,29.5
2018-03-26T01:30:41.683Z,29.5
2018-03-26T01:31:32.670Z,29.4
2018-03-26T01:32:21.249Z,29.4
2018-03-26T01:33:11.332Z,29.4
2018-03-26T01:34:01.841Z,29.4
2018-03-26T01:34:52.464Z,29.3
2018-03-26T01:35:41.859Z,29.3
2018-03-26T01:36:32.145Z,29.3
2018-03-26T01:37:22.537Z,29.3
2018-03-26T01:38:12.033Z,29.2
2018-03-26T01:39:02.664Z,29.1
2018-03-26T01:39:52.106Z,29.1
2018-03-26T01:40:42.504Z,29.1
2018-03-26T01:41:32.347Z,29.1
2018-03-26T01:42:23.429Z,29.1
2018-03-26T01:43:13.288Z,29
2018-03-26T01:44:03.074Z,29
2018-03-26T01:44:52.604Z,28.9
2018-03-26T01:45:43.484Z,28.9
2018-03-26T01:46:32.462Z,28.9
2018-03-26T01:47:22.732Z,28.9
2018-03-26T01:48:13.036Z,28.8
2018-03-26T01:49:03.366Z,28.8
2018-03-26T01:49:53.232Z,28.8
2018-03-26T01:50:42.444Z,28.8
2018-03-26T01:51:32.837Z,28.7
2018-03-26T01:52:23.201Z,28.7
2018-03-26T01:53:13.526Z,28.7
2018-03-26T01:54:04.017Z,28.6
2018-03-26T01:54:53.474Z,28.6
2018-03-26T01:55:43.606Z,28.6
2018-03-26T01:56:34.001Z,28.6
2018-03-26T01:57:22.769Z,28.5
2018-03-26T01:58:13.421Z,28.5
2018-03-26T01:59:03.856Z,28.5
2018-03-26T01:59:54.410Z,28.4
2018-03-26T02:00:44.759Z,28.4
2018-03-26T02:01:34.856Z,28.4
2018-03-26T02:02:23.383Z,28.4
2018-03-26T02:03:14.016Z,28.4
2018-03-26T02:04:03.333Z,28.3
2018-03-26T02:04:53.775Z,28.3
2018-03-26T02:05:44.118Z,28.3
2018-03-26T02:06:34.861Z,28.3
2018-03-26T02:07:23.766Z,28.3
2018-03-26T02:08:13.817Z,28.3
2018-03-26T02:09:03.943Z,28.2
2018-03-26T02:09:53.943Z,28.2
2018-03-26T02:10:44.880Z,28.1
2018-03-26T02:11:34.461Z,28.1
2018-03-26T02:12:24.390Z,28.1
2018-03-26T02:13:14.448Z,28.1
2018-03-26T02:14:04.003Z,28.1
2018-03-26T02:14:54.807Z,28
2018-03-26T02:15:45.172Z,28
2018-03-26T02:16:34.247Z,28
2018-03-26T02:17:24.992Z,27.9
2018-03-26T02:18:14.152Z,27.9
2018-03-26T02:19:05.785Z,27.9
2018-03-26T02:19:54.469Z,27.9
2018-03-26T02:20:45.939Z,27.9
2018-03-26T02:24:05.450Z,27.8
2018-03-26T02:24:54.837Z,27.8
2018-03-26T02:25:45.379Z,27.8
2018-03-26T02:26:34.820Z,27.7
2018-03-26T02:27:24.892Z,27.7
2018-03-26T02:28:14.577Z,27.7
2018-03-26T02:29:04.361Z,27.6
2018-03-26T02:29:54.864Z,27.6
2018-03-26T02:30:44.752Z,27.6
2018-03-26T02:31:35.095Z,27.6
2018-03-26T02:32:25.939Z,27.5
2018-03-26T02:33:14.451Z,27.5
2018-03-26T02:34:05.073Z,27.5
2018-03-26T02:34:55.807Z,27.5
2018-03-26T02:35:44.989Z,27.4
2018-03-26T02:36:36.149Z,27.4
2018-03-26T02:37:24.708Z,27.4
2018-03-26T02:38:17.135Z,27.4
2018-03-26T02:39:06.152Z,27.4
2018-03-26T02:39:56.557Z,27.4
2018-03-26T02:40:46.452Z,27.3
2018-03-26T02:41:36.278Z,27.3
2018-03-26T02:42:27.411Z,27.3
2018-03-26T02:43:16.697Z,27.3
2018-03-26T02:44:07.226Z,27.3
2018-03-26T02:44:57.395Z,27.3
2018-03-26T02:45:46.645Z,27.3
2018-03-26T02:46:36.715Z,27.3
2018-03-26T02:47:26.594Z,27.2
2018-03-26T02:48:18.411Z,27.2
2018-03-26T02:49:06.584Z,27.1
2018-03-26T02:49:57.369Z,27.1
2018-03-26T02:50:48.373Z,27.1
2018-03-26T02:51:37.679Z,27.1
2018-03-26T02:52:27.415Z,27.1
2018-03-26T02:53:16.269Z,27.1
2018-03-26T02:54:07.840Z,27.1
2018-03-26T02:54:57.933Z,27.1
2018-03-26T02:55:46.170Z,27.1
2018-03-26T02:56:38.256Z,27.1
2018-03-26T02:57:27.363Z,27.1
2018-03-26T02:58:17.666Z,27.1
2018-03-26T02:59:07.477Z,27.1
2018-03-26T02:59:58.127Z,27.1
2018-03-26T03:00:48.193Z,27
2018-03-26T03:01:37.650Z,27
2018-03-26T03:02:28.299Z,27
2018-03-26T03:03:19.836Z,27
2018-03-26T03:04:09.093Z,27
2018-03-26T03:04:59.105Z,27
2018-03-26T03:05:49.183Z,26.9
2018-03-26T03:06:38.675Z,26.9
2018-03-26T03:07:29.580Z,26.9
2018-03-26T03:08:19.929Z,26.9
2018-03-26T03:09:10.243Z,26.9
2018-03-26T03:09:59.467Z,26.9
2018-03-26T03:10:49.782Z,26.9
2018-03-26T03:11:39.537Z,26.9
2018-03-26T03:12:30.185Z,26.8
2018-03-26T03:13:19.982Z,26.8
2018-03-26T03:14:10.281Z,26.8
2018-03-26T03:14:59.529Z,26.8
2018-03-26T03:15:50.726Z,26.8
2018-03-26T03:16:39.901Z,26.7
2018-03-26T03:17:30.805Z,26.7
2018-03-26T03:18:20.871Z,26.6
2018-03-26T03:19:10.409Z,26.6
2018-03-26T03:20:00.361Z,26.6
2018-03-26T03:20:50.433Z,26.5
2018-03-26T03:21:40.759Z,26.5
2018-03-26T03:22:31.260Z,26.5
2018-03-26T03:23:20.895Z,26.4
2018-03-26T03:24:10.948Z,26.4
2018-03-26T03:25:01.042Z,26.4
2018-03-26T03:25:50.863Z,26.3
2018-03-26T03:26:40.903Z,26.3
2018-03-26T03:27:30.081Z,26.3
2018-03-26T03:28:20.154Z,26.3
2018-03-26T03:29:09.459Z,26.3
2018-03-26T03:30:00.516Z,26.2
2018-03-26T03:30:50.137Z,26.2
2018-03-26T03:31:40.373Z,26.1
2018-03-26T03:32:28.844Z,26.1
2018-03-26T03:33:20.388Z,26.1
2018-03-26T03:34:09.298Z,26
2018-03-26T03:35:00.670Z,26
2018-03-26T03:35:51.341Z,24.6
2018-03-26T03:36:39.655Z,24.4
2018-03-26T03:37:29.408Z,25.5
2018-03-26T03:38:20.238Z,26.3
2018-03-26T03:39:09.978Z,27.1
2018-03-26T03:40:00.899Z,27.9
2018-03-26T03:40:50.918Z,28.6
2018-03-26T03:41:41.969Z,29.2
2018-03-26T03:42:30.696Z,29.7
2018-03-26T03:43:20.893Z,30.1
2018-03-26T03:44:10.953Z,30.4
2018-03-26T03:45:00.717Z,30.8
2018-03-26T03:45:50.588Z,31.1
2018-03-26T03:46:40.503Z,31.5
2018-03-26T03:47:31.250Z,31.8
2018-03-26T03:48:20.459Z,32.1
2018-03-26T03:49:10.978Z,32.4
2018-03-26T03:50:01.618Z,32.6
2018-03-26T03:50:52.770Z,32.9
2018-03-26T03:51:40.980Z,33.1
2018-03-26T03:52:30.887Z,33.4
2018-03-26T03:53:22.460Z,33.6
2018-03-26T03:54:12.087Z,33.8
2018-03-26T03:55:01.480Z,33.9
2018-03-26T03:55:52.122Z,34.1
2018-03-26T03:56:41.584Z,34.3
2018-03-26T03:57:32.018Z,34.5
2018-03-26T03:58:21.815Z,34.7
2018-03-26T03:59:11.725Z,34.8
2018-03-26T04:00:01.982Z,35
2018-03-26T04:00:52.173Z,35.1
2018-03-26T04:01:41.660Z,35.3
2018-03-26T04:02:31.975Z,35.4
2018-03-26T04:03:22.067Z,34.7
2018-03-26T04:04:12.091Z,34.2
2018-03-26T04:05:02.047Z,33.9
2018-03-26T04:05:52.208Z,33.6
2018-03-26T04:06:42.241Z,33.1
2018-03-26T04:07:32.279Z,32.6
2018-03-26T04:08:22.560Z,31.9
2018-03-26T04:09:12.737Z,31.2
2018-03-26T04:10:03.566Z,30.4
2018-03-26T04:10:51.333Z,29.6
2018-03-26T04:11:41.401Z,28.9
2018-03-26T04:12:33.551Z,28.4
2018-03-26T04:13:23.005Z,28.6
2018-03-26T04:14:12.744Z,28.3
2018-03-26T04:15:04.521Z,28.8
2018-03-26T04:15:52.620Z,29.8
2018-03-26T04:16:43.246Z,30.3
2018-03-26T04:17:33.469Z,30.9
2018-03-26T04:18:23.695Z,31.3
2018-03-26T04:19:12.731Z,31.8
2018-03-26T04:20:03.274Z,32.1
2018-03-26T04:20:53.507Z,32.4
2018-03-26T04:21:44.152Z,32.8
2018-03-26T04:22:33.256Z,33
2018-03-26T04:23:22.817Z,33.3
2018-03-26T04:24:13.756Z,33.6
2018-03-26T04:25:03.903Z,33.8
2018-03-26T04:25:53.889Z,34
2018-03-26T04:26:44.304Z,34.3
2018-03-26T04:27:33.625Z,34.5
2018-03-26T04:28:24.216Z,34.7
2018-03-26T04:29:13.269Z,34.9
2018-03-26T04:30:02.975Z,35.1
2018-03-26T04:30:54.871Z,35.3
2018-03-26T04:31:44.705Z,34.7
2018-03-26T04:32:34.231Z,34.1
2018-03-26T04:33:25.193Z,34
2018-03-26T04:34:14.521Z,33.7
2018-03-26T04:35:04.869Z,33.3
2018-03-26T04:35:53.860Z,32.8
2018-03-26T04:36:44.709Z,32.1
2018-03-26T04:37:34.944Z,31.3
2018-03-26T04:38:25.010Z,30.6
2018-03-26T04:39:14.966Z,29.8
2018-03-26T04:40:03.948Z,29.1
2018-03-26T04:40:55.683Z,28.8
2018-03-26T04:41:44.423Z,28.9
2018-03-26T04:42:34.981Z,28.6
2018-03-26T04:43:24.753Z,29
2018-03-26T04:44:14.310Z,29.9
2018-03-26T04:45:04.218Z,30.6
2018-03-26T04:45:55.163Z,31.1
2018-03-26T04:46:44.787Z,31.5
2018-03-26T04:47:36.049Z,31.9
2018-03-26T04:48:25.062Z,32.3
2018-03-26T04:49:15.175Z,32.6
2018-03-26T04:50:05.829Z,32.9
2018-03-26T04:50:54.681Z,33.2
2018-03-26T04:51:45.023Z,33.5
2018-03-26T04:52:35.292Z,33.8
2018-03-26T04:53:25.600Z,34
2018-03-26T04:54:15.610Z,34.3
2018-03-26T04:55:05.551Z,34.5
2018-03-26T04:55:56.962Z,34.8
2018-03-26T04:56:46.043Z,34.9
2018-03-26T04:57:35.439Z,35.1
2018-03-26T04:58:26.244Z,35.3
2018-03-26T04:59:15.969Z,34.4
2018-03-26T05:00:06.287Z,34.1
2018-03-26T05:00:55.434Z,34
2018-03-26T05:01:46.197Z,33.7
2018-03-26T05:02:36.581Z,33.2
2018-03-26T05:03:26.659Z,32.6
2018-03-26T05:04:17.035Z,31.9
2018-03-26T05:05:06.317Z,31.1
2018-03-26T05:05:56.180Z,30.2
2018-03-26T05:06:46.340Z,29.4
2018-03-26T05:07:36.509Z,28.7
2018-03-26T05:08:26.445Z,28.8
2018-03-26T05:09:16.899Z,28.6
2018-03-26T05:10:06.668Z,28.3
2018-03-26T05:10:56.046Z,28.8
2018-03-26T05:11:46.988Z,29.8
2018-03-26T05:12:36.979Z,30.5
2018-03-26T05:13:27.765Z,31.1
2018-03-26T05:14:17.644Z,31.6
2018-03-26T05:15:07.148Z,32
2018-03-26T05:15:57.754Z,32.3
2018-03-26T05:16:46.998Z,32.7
2018-03-26T20:17:52.297Z,30
2018-03-26T20:18:41.605Z,30.8
2018-03-26T20:19:31.766Z,31.4
2018-03-26T20:20:21.695Z,31.9
2018-03-26T20:21:11.169Z,32.4
2018-03-26T20:22:01.801Z,32.8
2018-03-26T20:22:51.573Z,33.2
2018-03-26T20:23:41.636Z,33.6
2018-03-26T20:24:32.016Z,33.9
2018-03-26T20:25:21.994Z,34.3
2018-03-26T20:26:12.131Z,34.6
2018-03-26T20:27:02.151Z,34.9
2018-03-26T20:27:52.550Z,34.6
2018-03-26T20:28:42.511Z,33.8
2018-03-26T20:29:32.299Z,33.8
2018-03-26T20:30:22.630Z,33.6
2018-03-26T20:31:11.240Z,33.2
2018-03-26T20:32:01.171Z,32.6
2018-03-26T20:32:50.058Z,32.1
2018-03-26T20:33:41.510Z,31.4
2018-03-26T20:34:31.158Z,30.6
2018-03-26T20:35:21.148Z,29.9
2018-03-26T20:36:11.368Z,29.2
2018-03-26T20:37:01.654Z,28.6
2018-03-26T20:37:51.860Z,28.1
2018-03-26T20:38:41.413Z,27.7
2018-03-26T20:39:31.641Z,27.3
2018-03-26T20:40:22.822Z,27.1
2018-03-26T20:41:13.322Z,26.8
2018-03-26T20:42:03.561Z,26.6
2018-03-26T20:42:53.245Z,26.5
2018-03-26T20:43:43.598Z,26.6
2018-03-26T20:44:33.376Z,27.3
2018-03-26T20:45:23.686Z,28.6
2018-03-26T20:46:13.775Z,29.6
2018-03-26T20:47:02.998Z,30.3
2018-03-26T20:47:53.012Z,30.9
2018-03-26T20:48:43.377Z,31.5
2018-03-26T20:49:33.844Z,32
2018-03-26T20:50:23.505Z,32.4
2018-03-26T20:51:13.307Z,32.9
2018-03-26T20:52:03.949Z,33.3
2018-03-26T20:52:54.259Z,33.6
2018-03-26T20:53:43.487Z,34
2018-03-26T20:54:34.309Z,34.3
2018-03-26T20:55:23.820Z,34.7
2018-03-26T20:56:14.490Z,34.9
2018-03-26T20:57:04.464Z,34.6
2018-03-26T20:57:54.577Z,33.9
2018-03-26T20:58:44.367Z,33.8
2018-03-26T20:59:34.649Z,33.6
2018-03-26T21:00:24.429Z,33.1
2018-03-26T21:01:14.513Z,32.6
2018-03-26T21:02:04.860Z,31.9
2018-03-26T21:02:54.616Z,31.1
2018-03-26T21:03:44.649Z,30.4
2018-03-26T21:04:34.739Z,29.6
2018-03-26T21:05:25.051Z,28.9
2018-03-26T21:06:15.511Z,28.4
2018-03-26T21:07:04.926Z,27.9
2018-03-26T21:07:54.847Z,27.5
2018-03-26T21:08:45.412Z,27.2
2018-03-26T21:09:35.098Z,26.9
2018-03-26T21:10:24.320Z,26.7
2018-03-26T21:11:15.168Z,26.6
2018-03-26T21:12:05.592Z,26.4
2018-03-26T21:12:55.683Z,26.4
2018-03-26T21:13:45.648Z,26.9
2018-03-26T21:14:35.479Z,28.3
2018-03-26T21:15:24.968Z,29.4
2018-03-26T21:16:14.981Z,30.2
2018-03-26T21:17:05.329Z,30.8
2018-03-26T21:17:55.663Z,31.4
2018-03-26T21:18:44.961Z,31.9
2018-03-26T21:19:35.594Z,32.4
2018-03-26T21:20:25.822Z,32.9
2018-03-26T21:21:16.148Z,33.3
2018-03-26T21:22:05.400Z,33.7
2018-03-26T21:22:55.418Z,34.1
2018-03-26T21:23:45.231Z,34.4
2018-03-26T21:24:36.180Z,34.8
2018-03-26T21:25:25.898Z,34.9
2018-03-26T21:26:15.983Z,34
2018-03-26T21:27:05.445Z,33.8
2018-03-26T21:27:56.319Z,33.5
2018-03-26T21:28:46.170Z,32.9
2018-03-26T21:29:36.501Z,32.3
2018-03-26T21:30:26.607Z,31.5
2018-03-26T21:31:16.570Z,30.7
2018-03-26T21:32:07.163Z,29.8
2018-03-26T21:32:56.697Z,29.1
2018-03-26T21:33:46.753Z,28.5
2018-03-26T21:34:36.581Z,28.1
2018-03-26T21:35:26.305Z,27.6
2018-03-26T21:36:16.615Z,27.4
2018-03-26T21:37:06.965Z,27.1
2018-03-26T21:37:57.041Z,26.9
2018-03-26T21:38:46.817Z,26.7
2018-03-26T21:39:37.412Z,26.6
2018-03-26T21:40:26.669Z,26.5
2018-03-26T21:41:15.709Z,26.5
2018-03-26T21:42:06.349Z,27
2018-03-26T21:42:56.440Z,28.3
2018-03-26T21:43:44.907Z,29.5
2018-03-26T21:44:36.747Z,30.3
2018-03-26T21:45:26.821Z,31
2018-03-26T21:46:15.550Z,31.6
2018-03-26T21:47:06.069Z,32.1
2018-03-26T21:47:56.357Z,32.6
2018-03-26T21:48:46.409Z,33.1
2018-03-26T21:49:36.524Z,33.5
2018-03-26T21:50:26.172Z,33.9
2018-03-26T21:51:16.648Z,34.3
2018-03-26T21:52:07.302Z,34.7
2018-03-26T21:52:56.679Z,35
2018-03-26T21:53:46.371Z,34.9
2018-03-26T21:54:36.792Z,34.2
2018-03-26T21:55:27.071Z,34.1
2018-03-26T21:56:16.034Z,33.7
2018-03-26T21:57:06.251Z,33.2
2018-03-26T21:57:56.761Z,32.5
2018-03-26T21:58:46.931Z,31.7
2018-03-26T21:59:37.496Z,30.8
2018-03-26T22:00:27.027Z,30
2018-03-26T22:01:16.566Z,29.3
2018-03-26T22:02:07.410Z,28.8
2018-03-26T22:02:57.666Z,28.3
2018-03-26T22:03:46.340Z,27.9
2018-03-26T22:04:36.933Z,27.6
2018-03-26T22:05:27.773Z,27.3
2018-03-26T22:06:17.584Z,27.2
2018-03-26T22:07:07.006Z,27
2018-03-26T22:07:59.139Z,26.9
2018-03-26T22:08:47.958Z,26.8
2018-03-26T22:09:38.048Z,26.9
2018-03-26T22:10:27.096Z,27.5
2018-03-26T22:11:17.744Z,28.9
2018-03-26T22:12:07.905Z,29.9
2018-03-26T22:12:57.866Z,30.6
2018-03-26T22:13:48.516Z,31.3
2018-03-26T22:14:38.291Z,31.8
2018-03-26T22:15:28.317Z,32.3
2018-03-26T22:16:18.983Z,32.8
2018-03-26T22:17:08.171Z,33.3
2018-03-26T22:17:58.793Z,33.6
2018-03-26T22:18:48.460Z,34
2018-03-26T22:19:38.870Z,34.4
2018-03-26T22:20:28.274Z,34.8
2018-03-26T22:21:19.610Z,35.1
2018-03-26T22:22:08.922Z,34.9
2018-03-26T22:22:57.865Z,34.2
2018-03-26T22:23:48.098Z,34.1
2018-03-26T22:24:39.254Z,33.7
2018-03-26T22:25:29.269Z,33.1
2018-03-26T22:26:19.207Z,32.5
2018-03-26T22:27:09.390Z,31.6
2018-03-26T22:27:58.513Z,30.8
2018-03-26T22:28:49.434Z,30.1
2018-03-26T22:29:38.931Z,29.4
2018-03-26T22:30:29.789Z,28.8
2018-03-26T22:31:18.996Z,28.3
2018-03-26T22:32:09.482Z,27.9
2018-03-26T22:32:58.761Z,27.6
2018-03-26T22:33:49.374Z,27.4
2018-03-26T22:34:39.254Z,27.2
2018-03-26T22:35:29.349Z,27.1
2018-03-26T22:36:19.462Z,26.9
2018-03-26T22:37:09.309Z,26.8
2018-03-26T22:38:00.365Z,27
2018-03-26T22:39:39.981Z,29.1
2018-03-26T22:40:30.025Z,30
2018-03-26T22:41:20.311Z,30.8
2018-03-26T22:42:10.751Z,31.4
2018-03-26T22:43:00.482Z,31.9
2018-03-26T22:43:50.903Z,32.4
2018-03-26T22:44:41.242Z,32.9
2018-03-26T22:45:29.674Z,33.3
2018-03-26T22:46:20.257Z,33.7
2018-03-26T22:47:10.064Z,34.1
2018-03-26T22:47:59.984Z,34.4
2018-03-26T22:48:50.730Z,34.8
2018-03-26T22:49:41.174Z,35.1
2018-03-26T22:50:30.964Z,34.6
2018-03-26T22:51:20.698Z,34.2
2018-03-26T22:52:10.716Z,34
2018-03-26T22:53:01.135Z,33.6
2018-03-26T22:53:51.017Z,33
2018-03-26T22:54:41.012Z,32.3
2018-03-26T22:55:31.475Z,31.4
2018-03-26T22:56:20.742Z,30.6
2018-03-26T22:57:11.180Z,29.8
2018-03-26T22:58:00.387Z,29.2
2018-03-26T22:58:50.731Z,28.6
2018-03-26T22:59:41.274Z,28.2
2018-03-26T23:01:20.815Z,27.6
2018-03-26T23:02:11.850Z,27.3
2018-03-26T23:03:01.000Z,27.1
2018-03-26T23:03:51.603Z,27
2018-03-26T23:04:42.618Z,26.9
2018-03-26T23:05:31.372Z,26.8
2018-03-26T23:06:22.283Z,27.1
2018-03-26T23:07:11.885Z,27.9
2018-03-26T23:08:00.959Z,29.2
2018-03-26T23:08:51.489Z,30.1
2018-03-26T23:09:41.552Z,30.8
2018-03-26T23:10:32.039Z,31.4
2018-03-26T23:11:22.239Z,31.9
2018-03-26T23:12:12.110Z,32.4
2018-03-26T23:13:02.042Z,32.8
2018-03-26T23:13:51.955Z,33.3
2018-03-26T23:14:41.548Z,33.7
2018-03-26T23:15:33.511Z,34.1
2018-03-26T23:16:21.945Z,34.4
2018-03-26T23:17:12.444Z,34.8
2018-03-26T23:18:02.246Z,35.1
2018-03-26T23:18:53.337Z,34.7
2018-03-26T23:19:42.278Z,34.2
2018-03-26T23:20:33.368Z,34
2018-03-26T23:21:22.551Z,33.6
2018-03-26T23:22:12.356Z,33.1
2018-03-26T23:23:03.207Z,32.3
2018-03-26T23:23:53.873Z,31.5
2018-03-26T23:24:42.606Z,30.6
2018-03-26T23:25:32.310Z,29.9
2018-03-26T23:26:23.131Z,29.2
2018-03-26T23:27:13.259Z,28.7
2018-03-26T23:28:02.949Z,28.3
2018-03-26T23:28:53.108Z,27.9
2018-03-26T23:29:44.011Z,27.6
2018-03-26T23:30:33.386Z,27.4
2018-03-26T23:31:22.734Z,27.2
2018-03-26T23:32:13.203Z,27.1
2018-03-26T23:33:04.333Z,26.9
2018-03-26T23:33:52.903Z,26.8
2018-03-26T23:34:43.566Z,27.1
2018-03-26T23:35:34.015Z,27.9
2018-03-26T23:36:24.663Z,29.3
2018-03-26T23:37:13.987Z,30.1
2018-03-26T23:38:03.010Z,30.8
2018-03-26T23:38:53.139Z,31.4
2018-03-26T23:39:44.781Z,31.9
2018-03-26T23:40:33.739Z,32.4
2018-03-26T23:41:24.425Z,32.8
2018-03-26T23:42:13.893Z,33.3
2018-03-26T23:43:04.675Z,33.8
2018-03-26T23:43:53.727Z,34.1
2018-03-26T23:44:44.079Z,34.5
2018-03-26T23:45:34.178Z,34.9
2018-03-26T23:46:23.928Z,35.2
2018-03-26T23:47:14.083Z,34.8
2018-03-26T23:48:04.257Z,34.2
2018-03-26T23:48:54.193Z,34
2018-03-26T23:49:45.312Z,33.6
2018-03-26T23:50:34.895Z,33.1
2018-03-26T23:51:25.435Z,32.4
2018-03-26T23:52:15.067Z,31.6
2018-03-26T23:53:03.873Z,30.7
2018-03-26T23:53:56.059Z,29.9
2018-03-26T23:54:44.790Z,29.3
2018-03-26T23:55:35.142Z,28.7
2018-03-26T23:56:25.301Z,28.3
2018-03-26T23:57:15.587Z,28.3
2018-03-26T23:58:05.135Z,28.4
2018-03-26T23:58:55.642Z,28.1
2018-03-26T23:59:45.322Z,27.9
